Time;durP1;ratioP1;P1;durP2;ratioP2;P2;SDS_P1;SDS_P2;PMS_P1;PMS_P2;Temp;Humidity;BMP_temperature;BMP_pressure;BME280_temperature;BME280_humidity;BME280_pressure;Samples;Min_cycle;Max_cycle;Signal;HPM_P1;HPM_P2
2023/01/19 05:04:44;;;;;;;1.30;1.20;;;;;;;1.29;100.00;98669.09;5598093;31;274747;-86
2023/01/19 05:07:47;;;;;;;1.30;1.20;;;;;;;1.27;100.00;98678.75;5586520;32;34260;-87
2023/01/19 05:10:50;;;;;;;1.00;0.90;;;;;;;1.31;100.00;98696.84;5586836;32;34301;-87
2023/01/19 05:13:53;;;;;;;1.33;0.95;;;;;;;1.38;100.00;98700.09;5586556;31;33992;-87
2023/01/19 05:16:56;;;;;;;0.80;0.77;;;;;;;1.45;100.00;98692.84;5585913;31;33902;-87
2023/01/19 05:19:59;;;;;;;1.62;0.80;;;;;;;1.49;100.00;98681.38;5585624;31;34028;-87
2023/01/19 05:23:01;;;;;;;1.35;1.00;;;;;;;1.57;100.00;98689.75;5586026;32;33866;-87
2023/01/19 05:26:05;;;;;;;0.50;0.50;;;;;;;1.69;100.00;98701.50;5590452;31;34235;-89
2023/01/19 05:29:08;;;;;;;1.12;1.02;;;;;;;1.63;100.00;98717.41;5595071;31;35090;-90
2023/01/19 05:32:12;;;;;;;1.75;1.40;;;;;;;1.62;100.00;98713.94;5587847;32;34035;-90
2023/01/19 05:35:15;;;;;;;2.33;1.40;;;;;;;1.65;100.00;98720.81;5587580;32;34419;-91
2023/01/19 05:38:26;;;;;;;2.60;1.60;;;;;;;1.62;100.00;98718.34;5592122;32;33666;-87
2023/01/19 05:41:37;;;;;;;1.97;1.73;;;;;;;1.64;100.00;98718.25;5589005;31;33882;-87
2023/01/19 05:44:40;;;;;;;3.75;1.70;;;;;;;1.61;100.00;98721.88;5593278;32;33701;-87
2023/01/19 05:47:42;;;;;;;2.03;1.73;;;;;;;1.59;100.00;98715.84;5600069;32;35093;-87
2023/01/19 05:50:48;;;;;;;2.97;1.98;;;;;;;1.62;100.00;98710.50;5599253;32;34190;-87
2023/01/19 05:53:51;;;;;;;2.28;1.90;;;;;;;1.62;100.00;98697.44;5588940;31;34202;-85
2023/01/19 05:56:53;;;;;;;3.10;2.10;;;;;;;1.67;100.00;98692.00;5586758;31;34243;-87
2023/01/19 05:59:56;;;;;;;2.72;2.33;;;;;;;1.61;100.00;98700.97;5588625;31;33343;-87
2023/01/19 06:03:00;;;;;;;3.83;2.53;;;;;;;1.66;100.00;98688.53;5587858;32;33911;-87
2023/01/19 06:06:04;;;;;;;3.42;2.45;;;;;;;1.66;100.00;98665.00;5584963;31;33269;-84
2023/01/19 06:09:07;;;;;;;2.40;1.80;;;;;;;1.79;100.00;98678.44;5585876;32;35039;-84
2023/01/19 06:12:10;;;;;;;2.30;1.98;;;;;;;1.83;100.00;98679.16;5586263;31;33460;-85
2023/01/19 06:15:14;;;;;;;2.33;1.95;;;;;;;1.79;100.00;98680.19;5574021;32;34479;-85
2023/01/19 06:18:17;;;;;;;2.08;1.65;;;;;;;1.75;100.00;98669.88;5572756;32;34168;-85
2023/01/19 06:21:20;;;;;;;2.17;1.85;;;;;;;1.71;100.00;98657.00;5563402;32;33601;-85
2023/01/19 06:24:24;;;;;;;2.62;2.08;;;;;;;1.74;100.00;98677.78;5554575;32;33622;-85
2023/01/19 06:27:26;;;;;;;2.47;2.28;;;;;;;1.66;100.00;98677.25;5558503;32;34207;-85
2023/01/19 06:30:29;;;;;;;2.40;2.20;;;;;;;1.59;100.00;98658.31;5568659;32;34403;-85
2023/01/19 06:33:32;;;;;;;3.47;2.50;;;;;;;1.62;100.00;98653.81;5563095;32;35364;-85
2023/01/19 06:36:35;;;;;;;3.20;2.22;;;;;;;1.68;100.00;98657.97;5559044;32;33894;-83
2023/01/19 06:39:39;;;;;;;3.60;2.45;;;;;;;1.67;100.00;98671.09;5571844;32;34057;-84
2023/01/19 06:42:42;;;;;;;2.67;2.20;;;;;;;1.71;100.00;98688.38;5573004;32;34337;-84
2023/01/19 06:45:46;;;;;;;3.00;2.30;;;;;;;1.72;100.00;98698.75;5557170;32;33956;-84
2023/01/19 06:48:49;;;;;;;3.22;2.30;;;;;;;1.73;100.00;98710.94;5551708;32;34040;-84
2023/01/19 06:51:51;;;;;;;3.03;2.47;;;;;;;1.77;100.00;98716.00;5564388;32;34683;-84
2023/01/19 06:54:54;;;;;;;2.35;2.03;;;;;;;1.80;100.00;98708.06;5568884;32;33519;-84
2023/01/19 06:57:58;;;;;;;3.22;2.37;;;;;;;1.93;100.00;98708.41;5561759;32;35116;-84
2023/01/19 07:01:05;;;;;;;3.20;2.30;;;;;;;1.98;100.00;98696.00;5562662;31;33546;-85
2023/01/19 07:04:12;;;;;;;3.10;2.80;;;;;;;2.02;100.00;98702.81;5567249;31;34529;-85
2023/01/19 07:07:15;;;;;;;3.72;2.60;;;;;;;1.99;100.00;98692.44;5565740;31;33986;-86
2023/01/19 07:10:18;;;;;;;4.12;3.20;;;;;;;1.99;100.00;98700.28;5570501;31;33831;-86
2023/01/19 07:13:21;;;;;;;4.95;3.40;;;;;;;1.95;100.00;98688.25;5580243;31;34606;-86
2023/01/19 07:16:24;;;;;;;5.55;3.70;;;;;;;1.96;100.00;98682.97;5569014;31;34452;-86
2023/01/19 07:19:27;;;;;;;5.65;3.72;;;;;;;1.92;100.00;98678.78;5580533;31;34215;-86
2023/01/19 07:22:30;;;;;;;5.62;4.07;;;;;;;1.93;100.00;98675.25;5568846;31;33936;-87
2023/01/19 07:25:33;;;;;;;5.22;4.20;;;;;;;2.18;100.00;98684.69;5562905;31;33855;-86
2023/01/19 07:28:36;;;;;;;7.82;5.00;;;;;;;2.11;100.00;98712.87;5568569;31;34701;-87
2023/01/19 07:31:39;;;;;;;9.02;5.87;;;;;;;2.16;100.00;98712.66;5566845;31;33818;-92
2023/01/19 07:34:42;;;;;;;8.15;5.32;;;;;;;2.12;100.00;98721.56;5566015;31;33941;-92
2023/01/19 07:37:44;;;;;;;7.75;5.82;;;;;;;2.13;100.00;98721.53;5562469;32;34467;-90
2023/01/19 07:40:47;;;;;;;8.80;5.75;;;;;;;2.20;100.00;98718.66;5564673;31;35211;-90
2023/01/19 07:43:51;;;;;;;7.68;5.07;;;;;;;2.23;100.00;98710.66;5570409;31;34136;-85
2023/01/19 07:46:54;;;;;;;8.07;5.18;;;;;;;2.31;100.00;98721.63;5566518;31;33939;-85
2023/01/19 07:49:57;;;;;;;13.30;5.45;;;;;;;2.55;100.00;98722.38;5562559;31;34677;-85
2023/01/19 07:53:07;;;;;;;8.80;4.80;;;;;;;2.81;100.00;98707.28;5557781;32;33999;-86
2023/01/19 07:56:10;;;;;;;7.10;4.55;;;;;;;2.74;100.00;98726.81;5561957;31;33956;-86
2023/01/19 07:59:13;;;;;;;9.48;5.10;;;;;;;2.51;100.00;98723.41;5571827;31;34814;-88
2023/01/19 08:02:16;;;;;;;7.07;5.18;;;;;;;2.41;100.00;98730.81;5567255;32;32385;-87
2023/01/19 08:05:20;;;;;;;6.70;5.15;;;;;;;2.45;100.00;98725.47;5570850;31;35206;-88
2023/01/19 08:08:22;;;;;;;6.80;4.75;;;;;;;2.45;100.00;98738.53;5571969;31;33884;-86
2023/01/19 08:11:25;;;;;;;9.32;6.03;;;;;;;2.47;100.00;98716.59;5571083;31;34072;-85
2023/01/19 08:14:28;;;;;;;8.00;6.05;;;;;;;2.60;100.00;98727.41;5575137;31;33983;-85
2023/01/19 08:17:31;;;;;;;8.88;5.93;;;;;;;2.51;100.00;98720.78;5584892;32;35195;-86
2023/01/19 08:20:34;;;;;;;10.45;6.90;;;;;;;2.61;100.00;98710.78;5577837;31;35081;-85
2023/01/19 08:23:37;;;;;;;10.05;7.18;;;;;;;2.59;100.00;98711.75;5570420;31;34072;-86
2023/01/19 08:26:40;;;;;;;9.77;7.20;;;;;;;2.65;100.00;98707.09;5574553;31;34351;-85
2023/01/19 08:29:42;;;;;;;10.15;7.15;;;;;;;2.60;100.00;98713.44;5576283;31;34904;-85
2023/01/19 08:32:45;;;;;;;10.45;7.03;;;;;;;2.75;100.00;98706.69;5561045;31;33717;-85
2023/01/19 08:35:51;;;;;;;10.57;7.12;;;;;;;2.69;100.00;98706.06;5588642;31;33946;-86
2023/01/19 08:38:54;;;;;;;10.60;7.20;;;;;;;2.72;100.00;98718.19;5587415;31;34672;-85
2023/01/19 08:41:59;;;;;;;10.27;6.93;;;;;;;2.72;100.00;98718.19;5579640;31;34899;-86
2023/01/19 08:45:02;;;;;;;9.48;6.87;;;;;;;2.66;100.00;98721.91;5569039;31;34019;-87
2023/01/19 08:48:05;;;;;;;9.57;7.07;;;;;;;2.83;100.00;98733.41;5566934;31;34349;-87
2023/01/19 08:51:08;;;;;;;12.20;7.47;;;;;;;2.76;100.00;98721.50;5563164;31;34160;-87
2023/01/19 08:54:11;;;;;;;11.00;7.50;;;;;;;2.82;100.00;98729.94;5570085;31;33894;-87
2023/01/19 08:57:14;;;;;;;10.90;7.82;;;;;;;2.75;100.00;98738.97;5574687;31;34127;-85
2023/01/19 09:00:17;;;;;;;13.80;8.73;;;;;;;2.75;100.00;98731.13;5571041;31;34481;-85
2023/01/19 09:03:21;;;;;;;13.45;8.60;;;;;;;2.59;100.00;98727.47;5551766;31;34088;-85
2023/01/19 09:06:24;;;;;;;13.60;8.32;;;;;;;2.64;100.00;98723.75;5556626;31;33830;-85
2023/01/19 09:09:27;;;;;;;14.52;9.65;;;;;;;2.62;100.00;98727.34;5562625;32;32575;-84
2023/01/19 09:12:31;;;;;;;15.25;9.23;;;;;;;2.64;100.00;98722.88;5560684;32;34022;-84
2023/01/19 09:15:36;;;;;;;14.35;9.20;;;;;;;2.61;100.00;98717.78;5565185;31;34739;-85
2023/01/19 09:18:40;;;;;;;14.57;9.27;;;;;;;2.65;100.00;98714.97;5559550;31;34556;-84
2023/01/19 09:21:42;;;;;;;18.05;9.30;;;;;;;2.82;100.00;98716.84;5555361;31;33872;-85
2023/01/19 09:24:45;;;;;;;15.27;9.75;;;;;;;2.68;100.00;98716.59;5560251;31;33412;-85
2023/01/19 09:27:48;;;;;;;16.62;9.65;;;;;;;2.78;100.00;98738.00;5556945;31;35372;-84
2023/01/19 09:30:51;;;;;;;17.12;10.73;;;;;;;2.78;100.00;98732.75;5559104;32;34080;-85
2023/01/19 09:33:54;;;;;;;17.67;9.90;;;;;;;3.06;100.00;98726.25;5549617;32;36372;-84
2023/01/19 09:36:56;;;;;;;18.70;11.68;;;;;;;3.20;100.00;98712.53;5560443;32;33814;-84
2023/01/19 09:39:59;;;;;;;17.70;10.98;;;;;;;3.12;100.00;98725.97;5565752;31;33604;-85
2023/01/19 09:43:15;;;;;;;20.15;12.37;;;;;;;3.17;100.00;98720.56;5557111;32;34066;-84
2023/01/19 09:46:23;;;;;;;18.73;11.70;;;;;;;2.90;100.00;98731.34;5557380;32;34080;-89
2023/01/19 09:49:37;;;;;;;21.23;12.55;;;;;;;2.93;100.00;98723.38;5563105;32;35031;-84
2023/01/19 09:52:46;;;;;;;24.02;13.27;;;;;;;2.83;100.00;98715.06;5560931;31;34159;-85
2023/01/19 09:55:52;;;;;;;22.17;13.60;;;;;;;2.77;100.00;98715.34;5562492;32;35278;-83
2023/01/19 09:58:54;;;;;;;20.25;12.93;;;;;;;2.68;100.00;98716.59;5559351;32;33457;-86
2023/01/19 10:02:05;;;;;;;21.95;13.45;;;;;;;2.63;100.00;98726.41;5554156;32;32845;-85
2023/01/19 10:05:19;;;;;;;22.73;14.07;;;;;;;2.78;100.00;98727.53;5572704;31;34079;-87
2023/01/19 10:08:40;;;;;;;24.50;14.27;;;;;;;2.60;100.00;98721.31;5551952;32;34440;-85
2023/01/19 10:11:56;;;;;;;;;;;;;;;2.54;100.00;98732.91;5553906;32;34597;-86
2023/01/19 10:15:05;;;;;;;26.55;15.82;;;;;;;2.61;100.00;98736.13;5562600;32;34137;-86
2023/01/19 10:18:47;;;;;;;28.10;16.00;;;;;;;2.56;100.00;98733.69;5563550;31;34048;-86
2023/01/19 10:21:50;;;;;;;27.27;16.25;;;;;;;2.33;100.00;98737.28;5566763;32;33938;-85
2023/01/19 10:25:00;;;;;;;28.85;17.37;;;;;;;2.36;100.00;98742.41;5561620;31;33681;-88
2023/01/19 10:28:03;;;;;;;30.10;17.50;;;;;;;2.16;100.00;98749.28;5560400;31;34159;-91
2023/01/19 10:31:08;;;;;;;28.02;17.20;;;;;;;2.29;100.00;98740.03;5572128;31;33573;-92
2023/01/19 10:34:17;;;;;;;26.90;16.17;;;;;;;2.39;100.00;98742.25;5553883;32;33764;-91
2023/01/19 10:37:32;;;;;;;26.77;16.08;;;;;;;2.06;100.00;98735.75;5562956;32;33833;-87
2023/01/19 10:40:51;;;;;;;27.48;16.23;;;;;;;2.02;100.00;98740.25;5563663;31;36049;-87
2023/01/19 10:44:03;;;;;;;25.05;14.98;;;;;;;1.95;100.00;98748.41;5569859;31;34027;-85
2023/01/19 10:47:16;;;;;;;25.33;15.95;;;;;;;1.96;100.00;98756.19;5573993;31;34856;-84
2023/01/19 10:50:24;;;;;;;25.98;15.13;;;;;;;1.93;100.00;98765.94;5553068;32;34472;-85
2023/01/19 10:53:27;;;;;;;24.15;14.82;;;;;;;1.92;100.00;98764.22;5556690;31;34534;-86
2023/01/19 10:56:33;;;;;;;25.50;14.93;;;;;;;1.97;100.00;98762.28;5562917;32;33776;-86
2023/01/19 10:59:46;;;;;;;23.92;14.32;;;;;;;1.91;100.00;98758.13;5565200;32;34773;-87
2023/01/19 11:02:50;;;;;;;22.95;13.00;;;;;;;1.87;100.00;98767.03;5561090;32;34069;-87
2023/01/19 11:05:52;;;;;;;21.02;12.55;;;;;;;1.93;100.00;98761.56;5567864;32;33705;-87
2023/01/19 11:09:17;;;;;;;19.92;12.57;;;;;;;2.05;100.00;98764.59;5583780;31;35319;-87
2023/01/19 11:12:22;;;;;;;21.48;13.62;;;;;;;2.16;100.00;98770.22;5574059;32;34918;-87
2023/01/19 11:15:34;;;;;;;20.05;13.40;;;;;;;2.18;100.00;98763.19;5573489;32;34907;-85
2023/01/19 11:18:39;;;;;;;20.25;12.18;;;;;;;2.12;100.00;98760.81;5565965;32;34824;-85
2023/01/19 11:21:42;;;;;;;20.88;12.07;;;;;;;1.91;100.00;98760.75;5567123;31;34408;-85
2023/01/19 11:24:45;;;;;;;19.75;12.65;;;;;;;2.00;100.00;98768.25;5571172;32;34375;-84
2023/01/19 11:27:50;;;;;;;19.40;11.90;;;;;;;1.85;100.00;98769.72;5571104;32;34040;-84
2023/01/19 11:31:02;;;;;;;19.90;12.18;;;;;;;1.71;100.00;98759.78;5570932;32;34280;-87
2023/01/19 11:34:36;;;;;;;19.80;12.30;;;;;;;2.01;100.00;98758.66;5571774;32;33888;-84
2023/01/19 11:37:41;;;;;;;21.00;13.00;;;;;;;1.62;100.00;98757.56;5572532;32;34691;-85
2023/01/19 11:40:56;;;;;;;24.08;14.07;;;;;;;1.64;100.00;98760.09;5571976;31;35231;-85
2023/01/19 11:44:13;;;;;;;25.75;14.52;;;;;;;1.64;100.00;98775.75;5569659;32;34788;-87
2023/01/19 11:47:37;;;;;;;25.73;14.70;;;;;;;1.61;100.00;98766.31;5557424;31;33797;-86
2023/01/19 11:50:44;;;;;;;24.80;15.05;;;;;;;1.64;100.00;98776.63;5565545;32;34444;-86
2023/01/19 11:53:51;;;;;;;25.48;15.63;;;;;;;1.77;100.00;98766.56;5559868;31;33771;-87
2023/01/19 11:56:58;;;;;;;25.12;15.30;;;;;;;1.65;100.00;98773.09;5558791;32;33797;-86
2023/01/19 12:00:16;;;;;;;29.42;16.15;;;;;;;1.75;100.00;98776.19;5567189;32;34719;-87
2023/01/19 12:03:37;;;;;;;29.00;17.30;;;;;;;1.72;100.00;98784.19;5564381;31;34752;-86
2023/01/19 12:06:49;;;;;;;26.02;15.73;;;;;;;1.72;100.00;98782.41;5562252;31;35232;-88
2023/01/19 12:09:59;;;;;;;26.12;16.50;;;;;;;1.78;100.00;98790.91;5571103;31;34145;-86
2023/01/19 12:13:02;;;;;;;28.15;15.98;;;;;;;1.86;100.00;98796.72;5584569;31;33664;-86
2023/01/19 12:16:10;;;;;;;26.90;16.35;;;;;;;1.71;100.00;98799.00;5566994;32;34186;-86
2023/01/19 12:19:17;;;;;;;25.85;16.00;;;;;;;1.72;100.00;98803.31;5577566;32;35212;-86
2023/01/19 12:22:22;;;;;;;25.45;16.10;;;;;;;1.78;100.00;98806.59;5575119;32;34520;-84
2023/01/19 12:25:51;;;;;;;27.13;15.98;;;;;;;1.70;100.00;98809.50;5556267;32;34548;-85
2023/01/19 12:29:02;;;;;;;24.42;15.25;;;;;;;1.67;100.00;98814.88;5554879;32;34621;-86
2023/01/19 12:32:17;;;;;;;29.77;16.45;;;;;;;1.90;100.00;98815.75;5562901;32;34254;-86
2023/01/19 12:36:09;;;;;;;25.90;15.02;;;;;;;1.91;100.00;98833.97;5581012;32;35178;-85
2023/01/19 12:39:17;;;;;;;24.77;15.52;;;;;;;1.92;100.00;98833.09;5495625;32;33938;-88
2023/01/19 12:42:21;;;;;;;27.65;15.50;;;;;;;1.77;100.00;98829.31;5485592;32;33807;-87
2023/01/19 12:45:30;;;;;;;27.98;15.82;;;;;;;1.91;100.00;98830.53;5495430;32;34781;-88
2023/01/19 12:48:40;;;;;;;27.27;15.73;;;;;;;1.74;100.00;98834.63;5484387;32;35261;-90
2023/01/19 12:51:44;;;;;;;25.42;15.48;;;;;;;1.75;100.00;98844.19;5491082;32;34318;-87
2023/01/19 12:54:59;;;;;;;27.10;16.20;;;;;;;1.82;100.00;98844.81;5497126;32;34013;-87
2023/01/19 12:58:01;;;;;;;26.58;15.70;;;;;;;1.69;100.00;98845.28;5495829;32;34086;-87
2023/01/19 13:01:19;;;;;;;27.73;15.80;;;;;;;1.68;100.00;98851.44;5480378;32;34050;-87
2023/01/19 13:04:31;;;;;;;25.88;15.45;;;;;;;1.66;100.00;98858.44;5493116;32;33906;-87
2023/01/19 13:08:05;;;;;;;22.92;13.60;;;;;;;1.95;100.00;98846.03;5485390;32;33152;-87
2023/01/19 13:11:16;;;;;;;27.20;15.13;;;;;;;1.88;100.00;98870.72;5567168;32;34145;-86
2023/01/19 13:14:36;;;;;;;25.12;13.95;;;;;;;1.78;100.00;98870.22;5567814;32;34128;-87
2023/01/19 13:17:45;;;;;;;23.30;14.27;;;;;;;1.82;100.00;98887.47;5565277;31;33867;-86
2023/01/19 13:21:03;;;;;;;24.67;14.60;;;;;;;2.00;100.00;98893.78;5578964;32;34000;-86
2023/01/19 13:24:09;;;;;;;24.15;14.38;;;;;;;2.11;100.00;98905.63;5561360;32;34232;-87
2023/01/19 13:27:12;;;;;;;24.90;14.60;;;;;;;2.09;100.00;98907.41;5562582;32;33997;-86
2023/01/19 13:30:18;;;;;;;21.02;13.13;;;;;;;2.35;100.00;98908.16;5569870;31;34302;-86
2023/01/19 13:33:24;;;;;;;21.75;13.93;;;;;;;2.11;100.00;98913.47;5560333;32;34258;-89
2023/01/19 13:36:35;;;;;;;23.23;14.38;;;;;;;1.98;100.00;98927.00;5563776;32;35172;-90
2023/01/19 13:39:43;;;;;;;19.55;12.25;;;;;;;2.05;100.00;98930.22;5570194;32;35436;-87
2023/01/19 13:42:46;;;;;;;22.42;13.62;;;;;;;2.05;100.00;98934.63;5562571;32;33515;-85
2023/01/19 13:45:51;;;;;;;20.65;13.43;;;;;;;2.06;100.00;98944.19;5561105;32;34250;-86
2023/01/19 13:49:18;;;;;;;21.08;13.13;;;;;;;2.06;100.00;98941.56;5566888;32;34570;-86
2023/01/19 13:52:22;;;;;;;24.15;14.15;;;;;;;2.01;100.00;98947.81;5562549;32;32515;-87
2023/01/19 13:55:27;;;;;;;22.77;14.27;;;;;;;1.86;100.00;98964.09;5561303;32;33879;-85
2023/01/19 13:58:31;;;;;;;24.30;14.77;;;;;;;1.93;100.00;98964.69;5562088;32;33826;-86
2023/01/19 14:01:34;;;;;;;23.40;14.85;;;;;;;1.90;100.00;98964.81;5554080;32;34508;-85
2023/01/19 14:04:37;;;;;;;24.95;15.00;;;;;;;1.98;100.00;98979.31;5558276;32;32658;-87
2023/01/19 14:07:40;;;;;;;24.45;14.82;;;;;;;2.01;100.00;98980.97;5551638;32;34882;-87
2023/01/19 14:10:53;;;;;;;26.08;15.10;;;;;;;1.75;100.00;98977.53;5555559;32;34385;-88
2023/01/19 14:13:55;;;;;;;27.33;17.12;;;;;;;1.83;100.00;98980.75;5571283;32;33788;-87
2023/01/19 14:16:58;;;;;;;28.12;16.90;;;;;;;1.50;100.00;98973.16;5573896;32;32426;-88
2023/01/19 14:20:04;;;;;;;30.42;17.27;;;;;;;1.57;100.00;98976.44;5569910;32;35165;-88
2023/01/19 14:23:36;;;;;;;26.70;16.85;;;;;;;1.47;100.00;98974.13;5558614;32;33720;-88
2023/01/19 14:26:41;;;;;;;29.23;18.00;;;;;;;1.36;100.00;98951.91;5574425;32;34931;-87
2023/01/19 14:29:46;;;;;;;29.87;18.00;;;;;;;1.28;100.00;98950.41;5564157;32;33917;-87
2023/01/19 14:32:48;;;;;;;32.17;19.23;;;;;;;1.34;100.00;98959.78;5567453;32;35222;-86
2023/01/19 14:35:51;;;;;;;31.70;18.25;;;;;;;1.25;100.00;98966.19;5570196;32;35201;-87
2023/01/19 14:38:59;;;;;;;29.60;17.33;;;;;;;1.29;100.00;98977.38;5564325;32;34427;-87
2023/01/19 14:42:05;;;;;;;30.60;16.85;;;;;;;1.29;100.00;98991.31;5555746;32;34494;-87
2023/01/19 14:45:20;;;;;;;28.40;17.58;;;;;;;1.25;100.00;98994.06;5553841;32;34882;-91
2023/01/19 14:48:24;;;;;;;31.83;17.98;;;;;;;1.21;100.00;98993.34;5559665;32;33514;-88
2023/01/19 14:51:28;;;;;;;30.80;17.85;;;;;;;1.26;100.00;98998.38;5557304;32;33709;-87
2023/01/19 14:54:39;;;;;;;28.70;16.23;;;;;;;1.16;100.00;99000.47;5558921;32;34820;-87
2023/01/19 14:57:41;;;;;;;32.97;18.20;;;;;;;1.13;100.00;99014.47;5552064;32;35291;-88
2023/01/19 15:00:45;;;;;;;32.67;17.80;;;;;;;1.05;100.00;99014.72;5549751;32;34557;-87
2023/01/19 15:03:48;;;;;;;31.20;16.80;;;;;;;1.02;100.00;99020.06;5549139;32;34329;-87
2023/01/19 15:06:51;;;;;;;28.50;17.02;;;;;;;1.07;100.00;99032.97;5549737;32;33815;-87
2023/01/19 15:09:54;;;;;;;29.80;16.58;;;;;;;1.02;100.00;99047.91;5552998;32;34091;-87
2023/01/19 15:12:58;;;;;;;30.58;17.10;;;;;;;1.18;100.00;99061.34;5553055;32;35387;-87
2023/01/19 15:16:02;;;;;;;29.42;17.02;;;;;;;1.21;100.00;99071.69;5550513;32;33955;-87
2023/01/19 15:19:08;;;;;;;35.65;18.73;;;;;;;1.29;100.00;99084.50;5569436;32;35027;-87
2023/01/19 15:22:12;;;;;;;32.83;17.62;;;;;;;1.10;100.00;99079.03;5569454;32;34734;-86
2023/01/19 15:25:18;;;;;;;31.10;16.73;;;;;;;1.14;100.00;99076.25;5569770;32;33916;-87
2023/01/19 15:28:20;;;;;;;33.60;18.45;;;;;;;1.22;100.00;99068.19;5565557;32;33759;-86
2023/01/19 15:31:25;;;;;;;35.95;18.45;;;;;;;1.26;100.00;99056.72;5569771;32;34213;-88
2023/01/19 15:34:27;;;;;;;29.77;17.92;;;;;;;1.13;100.00;99071.94;5565229;32;34101;-87
2023/01/19 15:37:31;;;;;;;33.13;17.27;;;;;;;1.18;100.00;99077.00;5572159;32;33871;-87
2023/01/19 15:40:34;;;;;;;32.67;17.80;;;;;;;1.25;100.00;99075.91;5567120;32;34566;-87
2023/01/19 15:43:37;;;;;;;31.50;17.02;;;;;;;1.14;100.00;99086.69;5553791;32;33684;-87
2023/01/19 15:46:39;;;;;;;31.70;18.30;;;;;;;1.02;100.00;99097.53;5552998;32;34507;-87
2023/01/19 15:49:42;;;;;;;33.85;19.00;;;;;;;0.97;100.00;99084.63;5564117;32;34161;-87
2023/01/19 15:52:45;;;;;;;36.97;18.42;;;;;;;1.06;100.00;99080.88;5563664;32;33314;-87
2023/01/19 15:55:54;;;;;;;33.60;18.85;;;;;;;1.00;100.00;99097.56;5562526;32;34031;-87
2023/01/19 15:58:57;;;;;;;35.90;19.50;;;;;;;1.00;100.00;99115.84;5571330;32;33881;-87
2023/01/19 16:02:01;;;;;;;36.05;19.45;;;;;;;1.08;100.00;99115.63;5562763;32;34122;-87
2023/01/19 16:05:05;;;;;;;37.13;20.37;;;;;;;1.05;100.00;99120.94;5559485;32;34803;-88
2023/01/19 16:08:09;;;;;;;40.50;20.65;;;;;;;1.00;100.00;99122.84;5559210;32;34709;-87
2023/01/19 16:11:14;;;;;;;38.70;20.90;;;;;;;1.00;100.00;99147.19;5563550;32;33883;-88
2023/01/19 16:14:17;;;;;;;36.00;19.52;;;;;;;1.07;100.00;99151.34;5549594;32;34879;-87
2023/01/19 16:17:20;;;;;;;39.92;21.10;;;;;;;1.12;100.00;99139.91;5549570;32;34262;-87
2023/01/19 16:20:22;;;;;;;38.40;20.23;;;;;;;1.09;100.00;99155.69;5549645;32;34615;-88
2023/01/19 16:23:25;;;;;;;38.63;20.52;;;;;;;1.16;100.00;99165.03;5550357;32;34211;-87
2023/01/19 16:26:32;;;;;;;39.30;20.67;;;;;;;1.07;100.00;99179.22;5550846;32;34750;-87
2023/01/19 16:29:35;;;;;;;37.45;19.58;;;;;;;1.27;100.00;99182.97;5550162;32;35018;-87
2023/01/19 16:32:37;;;;;;;37.28;19.95;;;;;;;1.13;100.00;99172.94;5551886;32;34046;-87
2023/01/19 16:35:40;;;;;;;37.15;20.50;;;;;;;1.11;100.00;99199.09;5551074;32;34168;-91
2023/01/19 16:38:43;;;;;;;38.28;20.25;;;;;;;1.13;100.00;99202.56;5550900;32;33669;-91
